AirNav   Pilot Hours Calculator
 
 1238 users online  

55G Arnold Field Airport
Croswell, Michigan, USA

GOING TO CROSWELL?


FAA INFORMATION EFFECTIVE 25 FEBRUARY 2021

Location

FAA Identifier: 55G
Lat/Long: 43-17-52.0800N 082-36-28.3100W
43-17.868000N 082-36.471833W
43.2978000,-82.6078639
(estimated)
Elevation: 784 ft. / 239.0 m (surveyed)
Variation: 07W (1985)
From city: 2 miles NE of CROSWELL, MI
Time zone: UTC -5 (UTC -4 during Daylight Saving Time)
Zip code: 48422

Airport Operations

Airport use: Open to the public
Activation date: 05/1968
Control tower: no
ARTCC: CLEVELAND CENTER
FSS: LANSING FLIGHT SERVICE STATION
NOTAMs facility: LAN (NOTAM-D service available)
Attendance: UNATNDD
Wind indicator: yes
Segmented circle: no

Airport Communications

CTAF/UNICOM: 122.8

Airport Services

Parking: tiedowns
Bottled oxygen: NONE
Bulk oxygen: NONE

Runway Information

Runway 18/36

Dimensions: 2570 x 140 ft. / 783 x 43 m
Surface: turf, in good condition
Runway edge markings: RWY AND DSPLCD THLD MARKED WITH 3' YELLOW CONES.
RUNWAY 18  RUNWAY 36
Latitude: 43-18.080000N43-17.657500N
Longitude: 082-36.486667W082-36.457000W
Elevation: 784.0 ft.780.0 ft.
Traffic pattern: leftleft
Runway heading: 184 magnetic, 177 true004 magnetic, 357 true
Displaced threshold: 600 ft.570 ft.
Runway end identifier lights: nono
Obstructions: 76 ft. trees, 1250 ft. from runway, 16:1 slope to clear
APCH RATIO 24:1 AT DSPLCD THLD.
29 ft. pline, lighted, 11 ft. from runway, 97 ft. left of centerline
APCH RATIO AT DSPLCD THLD 20:1; DSPLCD THLD 5 FT ABOVE END OF RY.

Airport Ownership and Management from official FAA records

Ownership: Privately-owned
Owner: KENNETH LANDSBURG
4343 CROSWELL RD
CROSWELL, MI 48422
Phone 810-679-2487
Manager: BART PERRY
4343 CROSWELL ROAD
CROSWELL, MI 48422
Phone (810) 304-1018

Airport Operational Statistics

Aircraft based on the field: 6
Single engine airplanes: 4
Ultralights: 2
    
Aircraft operations: 200/year *
50% transient general aviation
50% local general aviation
* for 12-month period ending 31 December 2019

Additional Remarks

ARPT CLSD NOV-MAR. WINTER OPNS SKIS ONLY.
FOR CD CTC CLEVELAND ARTCC AT 440-774-0224, IF UNA CTC 440-774-0490.
BIRDS AND DEER INVOF RWY.

Instrument Procedures

There are no published instrument procedures at 55G.

Some nearby airports with instrument procedures:

77G - Marlette Township Airport (21 nm W)
KPHN - St Clair County International Airport (23 nm S)
D95 - Dupont-Lapeer Airport (32 nm SW)
KBAX - Huron County Memorial Airport (33 nm NW)
D98 - Romeo State Airport (34 nm SW)
 
Loc | Ops | Rwys | IFR | FBO | Links
Com | Nav | Svcs | Stats | Notes
Area around 55G (Arnold Field Airport)
 
Road maps at: MapQuest Bing Google
 
Aerial photo
No photo
 
Sectional chart

 
Airport distance calculator
Flying to Arnold Field Airport? Find the distance to fly.

From to 55G

Sunrise and sunset
Times for 26-Feb-2021
 Local
(UTC-5)
 Zulu
(UTC)
Morning civil twilight06:4411:44
Sunrise07:1312:13
Sunset18:1423:14
Evening civil twilight18:4323:43

Current date and time
Zulu (UTC)  26-Feb-2021 22:03:37
Local (UTC-5)  26-Feb-2021 17:03:37
 
METAR
CYZR 
22nm SE 
262100Z AUTO 16011KT 9SM CLR 03/M07 A3021 RMK SLP238
KPHN 
23nm S 
262118Z AUTO 14009KT 120V180 10SM CLR 03/M06 A3020 RMK AO2
KD95 
32nm SW 
262155Z AUTO 17011G16KT 10SM CLR 03/M08 A3016 RMK AO2 T00311082
KBAX 
33nm NW 
262155Z AUTO 17011KT 10SM CLR 01/M07 A3014 RMK AO2 T00111071
KCFS 
38nm W 
262155Z AUTO 12010KT 10SM CLR 04/M06 A3013 RMK AO2 T00401065
KMTC 
42nm S 
262156Z 13012KT 10SM FEW250 02/M03 A3016 RMK AO2A SLP226 T00231032 $
KP58 
44nm N 
262155Z AUTO 15009G16KT 02/M04 A3014 RMK AO1 SLP217 T00221044
TAF
CYZR 
22nm SE 
261938Z 2620/2703 17010KT P6SM SKC RMK FCST BASED ON AUTO OBS. NXT FCST WILL BE ISSUED AT 270845Z
NOTAMs
Click for the latest NOTAMs
NOTAMs are issued by the DoD/FAA and will open in a separate window not controlled by AirNav.

 

 
 

Would you like to see your business listed on this page?

 If your business provides an interesting product or service to pilots, flight crews, aircraft, or users of the Arnold Field Airport, you should consider listing it here.  To start the listing process, click on the button below
 
Add a business
 

Other Pages about Arnold Field Airport

Page from the Michigan Airport Directory (PDF)
 
Update a link
 
Copyright © AirNav, LLC. All rights reserved. Privacy Policy  Contact